Time;durP1;ratioP1;P1;durP2;ratioP2;P2;SDS_P1;SDS_P2;PMS_P1;PMS_P2;Temp;Humidity;BMP_temperature;BMP_pressure;BME280_temperature;BME280_humidity;BME280_pressure;Samples;Min_cycle;Max_cycle;Signal;HPM_P1;HPM_P2
2023/05/14 00:01:45;;;;;;;17.08;15.27;;;12.50;99.90;;;;;;5069208;28;20056;-76
2023/05/14 00:04:11;;;;;;;19.52;16.48;;;12.50;99.90;;;;;;5086659;28;20632;-75
2023/05/14 00:06:37;;;;;;;17.55;15.68;;;12.50;99.90;;;;;;5066810;28;20047;-77
2023/05/14 00:09:03;;;;;;;17.40;15.60;;;12.40;99.90;;;;;;5103189;28;20425;-78
2023/05/14 00:11:29;;;;;;;17.88;15.27;;;12.40;99.90;;;;;;5107048;27;20513;-78
2023/05/14 00:13:55;;;;;;;16.48;14.68;;;12.40;99.90;;;;;;5085483;28;20096;-78
2023/05/14 00:16:24;;;;;;;18.95;16.95;;;12.40;99.90;;;;;;5052452;28;20044;-78
2023/05/14 00:18:50;;;;;;;17.80;16.05;;;12.40;99.90;;;;;;5080234;28;20124;-78
2023/05/14 00:21:16;;;;;;;18.35;15.80;;;12.40;99.90;;;;;;5068399;28;20069;-78
2023/05/14 00:23:42;;;;;;;20.33;17.02;;;12.40;99.90;;;;;;5082863;28;20158;-78
2023/05/14 00:26:07;;;;;;;16.33;14.65;;;12.50;99.90;;;;;;5097442;27;20267;-79
2023/05/14 00:28:33;;;;;;;21.60;17.27;;;12.50;99.90;;;;;;5085133;28;20394;-80
2023/05/14 00:30:59;;;;;;;18.98;17.02;;;12.50;99.90;;;;;;5118792;27;20078;-77
2023/05/14 00:33:25;;;;;;;17.25;15.35;;;12.50;99.90;;;;;;5111232;27;20432;-78
2023/05/14 00:35:54;;;;;;;18.58;16.63;;;12.40;99.90;;;;;;5067530;28;20031;-78
2023/05/14 00:38:19;;;;;;;20.65;16.27;;;12.50;99.90;;;;;;5098813;27;20122;-77
2023/05/14 00:40:50;;;;;;;20.42;16.67;;;12.40;99.90;;;;;;5101280;28;20811;-77
2023/05/14 00:43:20;;;;;;;18.00;16.10;;;12.40;99.90;;;;;;5101232;28;20051;-78
2023/05/14 00:45:52;;;;;;;18.67;16.75;;;12.40;99.90;;;;;;5082049;28;20091;-78
2023/05/14 00:48:20;;;;;;;22.65;17.67;;;12.30;99.90;;;;;;5120063;27;20122;-78
2023/05/14 00:50:46;;;;;;;20.88;18.30;;;12.30;99.90;;;;;;5101235;28;20490;-78
2023/05/14 00:53:12;;;;;;;19.65;17.65;;;12.20;99.90;;;;;;5086014;28;20039;-77
2023/05/14 00:55:40;;;;;;;19.88;18.00;;;12.30;99.90;;;;;;5099769;28;20688;-78
2023/05/14 00:58:09;;;;;;;20.90;17.92;;;12.30;99.90;;;;;;5101627;28;20051;-78
2023/05/14 01:00:36;;;;;;;17.60;15.50;;;12.30;99.90;;;;;;5095335;28;20040;-77
2023/05/14 01:03:03;;;;;;;20.73;18.52;;;12.30;99.90;;;;;;5069877;28;20694;-78
2023/05/14 01:06:06;;;;;;;19.50;17.27;;;12.30;99.90;;;;;;5083117;28;20051;-78
2023/05/14 01:09:09;;;;;;;20.23;17.55;;;12.30;99.90;;;;;;5083640;28;20482;-77
2023/05/14 01:12:04;;;;;;;18.30;16.05;;;12.20;99.90;;;;;;5080472;28;20059;-77
2023/05/14 01:14:43;;;;;;;17.45;15.65;;;12.20;99.90;;;;;;5099845;28;20040;-77
2023/05/14 01:17:12;;;;;;;19.27;17.40;;;12.20;99.90;;;;;;5135457;27;20040;-77
2023/05/14 01:19:42;;;;;;;18.73;16.83;;;12.20;99.90;;;;;;5084872;28;20083;-77
2023/05/14 01:22:10;;;;;;;20.83;17.50;;;12.10;99.90;;;;;;5131064;27;20047;-77
2023/05/14 01:24:39;;;;;;;18.73;16.83;;;12.00;99.90;;;;;;5077766;28;20681;-77
2023/05/14 01:27:22;;;;;;;18.58;15.85;;;12.00;99.90;;;;;;5111767;27;20058;-78
2023/05/14 01:30:19;;;;;;;20.75;18.65;;;12.00;99.90;;;;;;5077794;28;20059;-78
2023/05/14 01:32:49;;;;;;;20.40;18.20;;;12.00;99.90;;;;;;5082912;28;20043;-77
2023/05/14 01:35:16;;;;;;;20.08;17.92;;;12.00;99.90;;;;;;5097383;28;20044;-77
2023/05/14 01:37:43;;;;;;;19.70;15.75;;;12.00;99.90;;;;;;5079674;28;20066;-77
2023/05/14 01:40:10;;;;;;;18.58;16.60;;;12.00;99.90;;;;;;5083308;28;20758;-78
2023/05/14 01:42:37;;;;;;;19.92;17.58;;;12.00;99.90;;;;;;5081103;28;20043;-78
2023/05/14 01:45:03;;;;;;;21.45;17.15;;;12.00;99.90;;;;;;5093025;28;20126;-76
2023/05/14 01:47:29;;;;;;;21.40;18.25;;;11.90;99.90;;;;;;5097162;28;20196;-78
2023/05/14 01:49:55;;;;;;;19.02;16.80;;;11.90;99.90;;;;;;5130474;27;20119;-77
2023/05/14 01:52:24;;;;;;;16.77;15.20;;;11.80;99.90;;;;;;5116093;28;20051;-77
2023/05/14 01:54:49;;;;;;;21.25;17.23;;;11.80;99.90;;;;;;5084314;28;20043;-77
2023/05/14 01:57:15;;;;;;;19.30;16.08;;;11.80;99.90;;;;;;5099282;28;20048;-78
2023/05/14 01:59:41;;;;;;;18.55;16.15;;;11.70;99.90;;;;;;5100385;28;20127;-77
2023/05/14 02:02:07;;;;;;;19.83;17.73;;;11.70;99.90;;;;;;5068213;28;20058;-77
2023/05/14 02:04:33;;;;;;;17.55;15.52;;;11.70;99.90;;;;;;5067850;28;20048;-77
2023/05/14 02:06:58;;;;;;;21.13;17.40;;;11.70;99.90;;;;;;5066271;28;20496;-77
2023/05/14 02:09:24;;;;;;;19.08;16.63;;;11.70;99.90;;;;;;5070030;28;20645;-77
2023/05/14 02:11:53;;;;;;;18.80;16.80;;;11.60;99.90;;;;;;5085769;28;20071;-78
2023/05/14 02:14:18;;;;;;;17.33;15.52;;;11.60;99.90;;;;;;5065910;28;20536;-77
2023/05/14 02:16:44;;;;;;;18.35;16.50;;;11.60;99.90;;;;;;5062068;28;20075;-77
2023/05/14 02:19:10;;;;;;;20.40;18.23;;;11.60;99.90;;;;;;5066099;28;20040;-77
2023/05/14 02:21:36;;;;;;;19.63;17.00;;;11.60;99.90;;;;;;5074268;28;20059;-78
2023/05/14 02:24:02;;;;;;;21.13;16.75;;;11.60;99.90;;;;;;5060906;28;20070;-78
2023/05/14 02:26:27;;;;;;;20.10;18.00;;;11.50;99.90;;;;;;5045040;28;20043;-78
2023/05/14 02:28:53;;;;;;;22.08;17.85;;;11.50;99.90;;;;;;5082099;27;20100;-78
2023/05/14 02:31:22;;;;;;;21.35;19.10;;;11.50;99.90;;;;;;5049206;28;20042;-76
2023/05/14 02:33:53;;;;;;;20.17;17.92;;;11.50;99.90;;;;;;5117038;27;20166;-79
2023/05/14 02:36:22;;;;;;;20.95;18.80;;;11.40;99.90;;;;;;5081854;28;20047;-78
2023/05/14 02:38:48;;;;;;;24.10;21.48;;;11.50;99.90;;;;;;5050254;28;20123;-79
2023/05/14 02:41:13;;;;;;;23.60;20.58;;;11.50;99.90;;;;;;5081839;28;20119;-78
2023/05/14 02:43:40;;;;;;;22.10;19.73;;;11.40;99.90;;;;;;5081331;27;20486;-79
2023/05/14 02:46:05;;;;;;;22.05;19.73;;;11.50;99.90;;;;;;5071400;28;20039;-78
2023/05/14 02:48:31;;;;;;;22.67;20.48;;;11.50;99.90;;;;;;5065560;28;20051;-78
2023/05/14 02:50:57;;;;;;;24.40;19.02;;;11.40;99.90;;;;;;5065467;28;20047;-78
2023/05/14 02:53:23;;;;;;;22.00;17.83;;;11.50;99.90;;;;;;5048149;28;20105;-78
2023/05/14 02:55:48;;;;;;;19.80;17.15;;;11.50;99.90;;;;;;5082777;28;20050;-78
2023/05/14 02:58:14;;;;;;;20.83;17.55;;;11.50;99.90;;;;;;5065304;28;20035;-78
2023/05/14 03:00:40;;;;;;;20.83;18.67;;;11.40;99.90;;;;;;5063995;28;20326;-78
2023/05/14 03:03:06;;;;;;;18.63;16.80;;;11.40;99.90;;;;;;5079693;28;20501;-78
2023/05/14 03:05:32;;;;;;;17.58;15.43;;;11.40;99.90;;;;;;5131627;27;20046;-78
2023/05/14 03:07:57;;;;;;;17.15;15.35;;;11.50;99.90;;;;;;5097777;28;21605;-78
2023/05/14 03:10:26;;;;;;;15.98;14.40;;;11.40;99.90;;;;;;5082443;28;20516;-78
2023/05/14 03:12:52;;;;;;;16.63;14.70;;;11.40;99.90;;;;;;5080327;28;20180;-78
2023/05/14 03:15:18;;;;;;;18.23;14.75;;;11.30;99.90;;;;;;5050937;28;20118;-78
2023/05/14 03:17:44;;;;;;;15.85;14.23;;;11.40;99.90;;;;;;5063058;28;20054;-78
2023/05/14 03:20:11;;;;;;;16.08;13.88;;;11.30;99.90;;;;;;5098552;27;20560;-78
2023/05/14 03:22:36;;;;;;;17.65;15.57;;;11.40;99.90;;;;;;5095877;27;20475;-78
2023/05/14 03:25:03;;;;;;;16.58;14.98;;;11.40;99.90;;;;;;5065962;28;20073;-78
2023/05/14 03:27:28;;;;;;;17.80;15.82;;;11.30;99.90;;;;;;5080601;28;20126;-78
2023/05/14 03:29:54;;;;;;;17.65;14.90;;;11.30;99.90;;;;;;5063643;28;20124;-78
2023/05/14 03:32:20;;;;;;;17.90;15.85;;;11.30;99.90;;;;;;5064038;28;20043;-78
2023/05/14 03:34:48;;;;;;;19.58;16.95;;;11.30;99.90;;;;;;5079405;28;20463;-77
2023/05/14 03:37:14;;;;;;;19.40;16.80;;;11.30;99.90;;;;;;5060354;28;20043;-78
2023/05/14 03:39:40;;;;;;;17.92;15.75;;;11.30;99.90;;;;;;5094664;28;20044;-78
2023/05/14 03:42:05;;;;;;;18.58;16.33;;;11.30;99.90;;;;;;5076520;28;20453;-78
2023/05/14 03:44:31;;;;;;;16.63;14.93;;;11.20;99.90;;;;;;5064116;28;20047;-78
2023/05/14 03:46:57;;;;;;;15.70;14.05;;;11.20;99.90;;;;;;5080586;28;20032;-76
2023/05/14 03:49:23;;;;;;;18.38;15.40;;;11.20;99.90;;;;;;5095750;28;20036;-78
2023/05/14 03:51:48;;;;;;;17.60;15.13;;;11.20;99.90;;;;;;5079612;28;20205;-78
2023/05/14 03:54:14;;;;;;;17.48;15.55;;;11.10;99.90;;;;;;5097676;28;20036;-78
2023/05/14 03:56:40;;;;;;;17.30;15.60;;;11.10;99.90;;;;;;5110891;27;20055;-78
2023/05/14 03:59:06;;;;;;;20.70;16.98;;;11.10;99.90;;;;;;5080442;28;20043;-78
2023/05/14 04:01:31;;;;;;;18.70;16.75;;;11.00;99.90;;;;;;5075430;28;20689;-78
2023/05/14 04:04:00;;;;;;;18.25;16.40;;;11.00;99.90;;;;;;5080879;28;20486;-78
2023/05/14 04:06:26;;;;;;;20.15;16.63;;;11.00;99.90;;;;;;5096275;27;20536;-78
2023/05/14 04:08:52;;;;;;;18.13;16.33;;;11.00;99.90;;;;;;5098795;28;20043;-78
2023/05/14 04:11:18;;;;;;;17.15;15.45;;;11.00;99.90;;;;;;5079219;28;20059;-78
2023/05/14 04:13:44;;;;;;;16.25;14.63;;;11.00;99.90;;;;;;5065578;28;20375;-78
2023/05/14 04:16:09;;;;;;;17.98;14.85;;;11.00;99.90;;;;;;5078423;28;20334;-79
2023/05/14 04:18:35;;;;;;;18.05;16.05;;;11.10;99.90;;;;;;5080327;28;20043;-78
2023/05/14 04:21:01;;;;;;;23.35;17.08;;;11.10;99.90;;;;;;5097157;28;20048;-78
2023/05/14 04:23:28;;;;;;;21.20;16.73;;;11.10;99.90;;;;;;5080885;28;20048;-78
2023/05/14 04:25:53;;;;;;;18.77;16.13;;;11.10;99.90;;;;;;5094663;28;20043;-79
2023/05/14 04:28:19;;;;;;;21.20;19.08;;;11.10;99.90;;;;;;5062676;28;20050;-78
2023/05/14 04:30:45;;;;;;;17.88;15.98;;;11.20;99.90;;;;;;5081996;28;20051;-78
2023/05/14 04:33:11;;;;;;;27.52;21.52;;;11.10;99.90;;;;;;5045867;28;20076;-79
2023/05/14 04:35:38;;;;;;;19.45;16.70;;;11.20;99.90;;;;;;5062103;28;20078;-78
2023/05/14 04:38:04;;;;;;;20.98;17.40;;;11.20;99.90;;;;;;5062551;28;20055;-78
2023/05/14 04:40:30;;;;;;;21.45;18.90;;;11.20;99.90;;;;;;5095600;28;20052;-78
2023/05/14 04:42:56;;;;;;;20.55;18.17;;;11.20;99.90;;;;;;5064471;28;20510;-77
2023/05/14 04:45:22;;;;;;;28.08;22.10;;;11.20;99.90;;;;;;5079852;28;20039;-74
2023/05/14 04:47:48;;;;;;;25.67;21.98;;;11.20;99.90;;;;;;5097232;28;20039;-75
2023/05/14 04:50:14;;;;;;;21.48;19.00;;;11.20;99.90;;;;;;5064275;28;20055;-77
2023/05/14 04:52:40;;;;;;;21.63;19.23;;;11.20;99.90;;;;;;5095754;28;20039;-77
2023/05/14 04:55:07;;;;;;;23.70;21.25;;;11.20;99.90;;;;;;5112545;27;20051;-77
2023/05/14 04:57:33;;;;;;;26.20;20.60;;;11.20;99.90;;;;;;5081799;28;20035;-77
2023/05/14 04:59:58;;;;;;;20.67;17.98;;;11.20;99.90;;;;;;5077710;28;20637;-77
2023/05/14 05:02:24;;;;;;;18.70;16.70;;;11.10;99.90;;;;;;5065010;28;20393;-77
2023/05/14 05:04:53;;;;;;;20.05;17.63;;;11.10;99.90;;;;;;5079219;28;20059;-77
2023/05/14 05:07:19;;;;;;;20.48;16.90;;;11.20;99.90;;;;;;5078851;28;20490;-77
2023/05/14 05:09:44;;;;;;;23.10;20.50;;;11.20;99.90;;;;;;5060839;28;20040;-77
2023/05/14 05:12:10;;;;;;;26.92;21.67;;;11.10;99.90;;;;;;5063633;28;21056;-78
2023/05/14 05:14:36;;;;;;;26.08;20.75;;;11.20;99.90;;;;;;5043172;28;20514;-77
2023/05/14 05:17:02;;;;;;;20.05;17.92;;;11.20;99.90;;;;;;5080335;28;20462;-77
2023/05/14 05:19:28;;;;;;;22.58;19.50;;;11.20;99.90;;;;;;5092458;27;20096;-77
2023/05/14 05:21:54;;;;;;;19.75;17.65;;;11.20;99.90;;;;;;5079673;28;20135;-78
2023/05/14 05:24:19;;;;;;;19.25;17.27;;;11.30;99.90;;;;;;5110925;27;20311;-78
2023/05/14 05:26:45;;;;;;;27.10;21.30;;;11.20;99.90;;;;;;5063043;28;20073;-78
2023/05/14 05:29:11;;;;;;;27.20;21.75;;;11.30;99.90;;;;;;5094571;28;20329;-78
2023/05/14 05:31:37;;;;;;;24.83;20.10;;;11.30;99.90;;;;;;5080269;28;20040;-78
2023/05/14 05:34:03;;;;;;;21.52;19.23;;;11.30;99.90;;;;;;5060645;28;20561;-78
2023/05/14 05:36:28;;;;;;;27.58;21.25;;;11.40;99.90;;;;;;5095965;28;20165;-78
2023/05/14 05:38:54;;;;;;;22.17;19.92;;;11.40;99.90;;;;;;5062956;28;20036;-78
2023/05/14 05:41:23;;;;;;;20.63;18.55;;;11.50;99.90;;;;;;5078484;28;21661;-79
2023/05/14 05:43:49;;;;;;;23.08;19.50;;;11.50;99.90;;;;;;5061896;28;20127;-78
2023/05/14 05:46:15;;;;;;;30.48;22.08;;;11.50;99.90;;;;;;5097856;28;20500;-78
2023/05/14 05:48:40;;;;;;;26.63;22.52;;;11.60;99.90;;;;;;5077465;28;20243;-78
2023/05/14 05:51:06;;;;;;;29.48;22.90;;;11.60;99.90;;;;;;5077923;28;20052;-78
2023/05/14 05:53:32;;;;;;;26.67;21.70;;;11.70;99.90;;;;;;5077916;28;20477;-78
2023/05/14 05:55:58;;;;;;;27.25;22.48;;;11.70;99.90;;;;;;5062183;28;20126;-79
2023/05/14 05:58:23;;;;;;;26.80;22.63;;;11.80;99.90;;;;;;5110530;27;20044;-79
2023/05/14 06:00:49;;;;;;;27.40;23.60;;;11.90;99.90;;;;;;5079139;28;20035;-79
2023/05/14 06:03:15;;;;;;;26.42;22.63;;;12.00;99.90;;;;;;5082205;28;20040;-79
2023/05/14 06:05:41;;;;;;;25.27;21.55;;;12.00;99.90;;;;;;5081795;28;20083;-80
2023/05/14 06:08:06;;;;;;;27.70;21.65;;;12.10;99.90;;;;;;5065022;28;20044;-78
2023/05/14 06:10:33;;;;;;;25.13;21.70;;;12.10;99.90;;;;;;5048730;28;20067;-78
2023/05/14 06:12:59;;;;;;;25.67;21.20;;;12.20;99.90;;;;;;5115387;27;20181;-78
2023/05/14 06:15:24;;;;;;;24.42;21.27;;;12.30;99.90;;;;;;5064402;28;20054;-78
2023/05/14 06:17:51;;;;;;;25.83;20.92;;;12.40;99.90;;;;;;5082142;28;20182;-78
2023/05/14 06:20:16;;;;;;;22.92;19.48;;;12.50;99.90;;;;;;5080052;28;20163;-79
2023/05/14 06:22:42;;;;;;;24.67;19.63;;;12.60;99.90;;;;;;5063330;28;20535;-79
2023/05/14 06:25:09;;;;;;;21.83;18.65;;;12.70;99.90;;;;;;5063103;27;20054;-79
2023/05/14 06:27:35;;;;;;;24.98;18.92;;;12.80;99.90;;;;;;5096670;27;20734;-79
2023/05/14 06:30:00;;;;;;;25.15;20.27;;;12.90;99.90;;;;;;5082707;28;20135;-79
2023/05/14 06:32:26;;;;;;;24.30;19.00;;;13.00;99.90;;;;;;5095294;28;20562;-80
2023/05/14 06:34:52;;;;;;;25.85;18.20;;;13.10;99.90;;;;;;5080105;28;20054;-79
2023/05/14 06:37:18;;;;;;;24.52;17.67;;;13.20;99.90;;;;;;5063321;28;20032;-79
2023/05/14 06:39:48;;;;;;;20.20;16.50;;;13.30;99.90;;;;;;5066772;28;20126;-80
2023/05/14 06:42:15;;;;;;;19.77;15.48;;;13.40;99.90;;;;;;5098067;27;20043;-79
2023/05/14 06:44:41;;;;;;;18.25;14.98;;;13.60;99.90;;;;;;5097775;28;20051;-79
2023/05/14 06:47:10;;;;;;;15.30;12.55;;;13.70;99.90;;;;;;5079286;28;20712;-80
2023/05/14 06:49:36;;;;;;;19.42;14.63;;;13.80;99.90;;;;;;5082360;28;20056;-76
2023/05/14 06:52:02;;;;;;;16.85;13.57;;;14.00;99.90;;;;;;5064128;28;20040;-76
2023/05/14 06:54:28;;;;;;;20.38;13.27;;;14.10;99.90;;;;;;5081186;28;20044;-76
2023/05/14 06:56:54;;;;;;;17.48;13.80;;;14.20;99.90;;;;;;5079873;28;20128;-77
2023/05/14 06:59:23;;;;;;;18.45;14.23;;;14.20;99.90;;;;;;5131375;27;20622;-76
2023/05/14 07:01:49;;;;;;;17.88;13.30;;;14.30;99.90;;;;;;5098702;28;20047;-76
2023/05/14 07:04:14;;;;;;;20.23;13.27;;;14.30;99.90;;;;;;5060860;28;20062;-76
2023/05/14 07:06:40;;;;;;;17.58;12.23;;;14.40;99.90;;;;;;5064585;28;20167;-76
2023/05/14 07:09:06;;;;;;;19.25;12.27;;;14.50;99.90;;;;;;5096632;28;20088;-76
2023/05/14 07:11:35;;;;;;;18.58;12.13;;;14.60;99.90;;;;;;5047012;28;20043;-77
2023/05/14 07:14:01;;;;;;;17.13;11.27;;;14.80;99.90;;;;;;5065059;28;20208;-77
2023/05/14 07:16:26;;;;;;;15.38;10.70;;;14.80;99.90;;;;;;5098414;28;20561;-76
2023/05/14 07:18:52;;;;;;;13.43;10.30;;;14.90;99.90;;;;;;5095365;27;20473;-77
2023/05/14 07:21:18;;;;;;;15.75;10.35;;;15.00;99.90;;;;;;5080652;28;20051;-76
2023/05/14 07:23:44;;;;;;;16.90;10.43;;;15.00;99.90;;;;;;5060558;28;20048;-76
2023/05/14 07:26:10;;;;;;;15.80;9.88;;;15.10;99.90;;;;;;5099335;28;20051;-77
2023/05/14 07:28:36;;;;;;;18.77;10.55;;;15.10;99.90;;;;;;5060213;28;20047;-76
2023/05/14 07:31:07;;;;;;;16.15;9.88;;;15.20;99.90;;;;;;5079149;28;20696;-75
2023/05/14 07:33:35;;;;;;;16.33;9.68;;;15.30;99.90;;;;;;5098542;28;20066;-75
2023/05/14 07:36:01;;;;;;;14.57;10.23;;;15.30;99.90;;;;;;5076717;28;20488;-76
2023/05/14 07:38:27;;;;;;;14.45;9.27;;;15.40;99.90;;;;;;5080472;28;20043;-76
2023/05/14 07:40:53;;;;;;;13.25;7.95;;;15.50;99.90;;;;;;5095320;27;20432;-76
2023/05/14 07:43:19;;;;;;;15.35;8.60;;;15.60;99.90;;;;;;5095142;27;20220;-79
2023/05/14 07:45:44;;;;;;;15.00;8.60;;;15.70;99.90;;;;;;5063514;28;20044;-79
2023/05/14 07:48:10;;;;;;;16.67;9.18;;;15.80;99.90;;;;;;5062485;28;20075;-79
2023/05/14 07:50:37;;;;;;;14.35;8.30;;;16.00;99.90;;;;;;5062432;28;20100;-79
2023/05/14 07:53:02;;;;;;;14.23;8.43;;;16.10;99.90;;;;;;5080750;27;20123;-79
2023/05/14 07:55:28;;;;;;;13.32;7.95;;;16.20;99.90;;;;;;5096690;28;20131;-76
2023/05/14 07:57:54;;;;;;;12.73;8.02;;;16.30;99.90;;;;;;5080462;28;20488;-76
2023/05/14 08:00:23;;;;;;;9.80;6.93;;;16.40;99.90;;;;;;5097651;27;20685;-76
2023/05/14 08:02:50;;;;;;;16.88;8.18;;;16.40;99.90;;;;;;5064927;28;20082;-77
2023/05/14 08:05:17;;;;;;;15.63;8.25;;;16.60;99.90;;;;;;5081527;28;20039;-79
2023/05/14 08:07:44;;;;;;;11.70;7.20;;;16.60;99.90;;;;;;5095601;28;20078;-79
2023/05/14 08:10:09;;;;;;;15.05;7.80;;;16.60;99.90;;;;;;5079977;28;20575;-79
2023/05/14 08:12:35;;;;;;;12.18;7.80;;;16.70;99.90;;;;;;5062770;28;20031;-80
2023/05/14 08:15:02;;;;;;;10.75;6.72;;;16.70;99.90;;;;;;5080492;28;20521;-79
2023/05/14 08:17:27;;;;;;;11.93;7.60;;;16.80;99.90;;;;;;5064345;28;20569;-79
2023/05/14 08:19:53;;;;;;;11.00;6.63;;;16.90;99.90;;;;;;5078557;28;20043;-79
2023/05/14 08:22:22;;;;;;;11.52;7.03;;;17.00;99.90;;;;;;5063451;28;20047;-79
2023/05/14 08:24:48;;;;;;;10.15;6.43;;;17.20;99.90;;;;;;5062906;28;20511;-79
2023/05/14 08:27:15;;;;;;;13.57;8.15;;;17.20;99.90;;;;;;5047036;28;20038;-79
2023/05/14 08:29:41;;;;;;;14.07;7.70;;;17.30;99.90;;;;;;5079105;28;20054;-76
2023/05/14 08:32:07;;;;;;;12.43;7.40;;;17.30;99.90;;;;;;5095030;28;20040;-77
2023/05/14 08:34:33;;;;;;;13.88;7.13;;;17.20;99.90;;;;;;5080427;28;20427;-79
2023/05/14 08:36:59;;;;;;;12.82;7.47;;;17.20;99.90;;;;;;5080937;28;20044;-79
2023/05/14 08:39:25;;;;;;;10.57;6.45;;;17.30;99.90;;;;;;5045283;28;21054;-79
2023/05/14 08:41:51;;;;;;;11.52;7.13;;;17.30;99.90;;;;;;5095520;28;20172;-79
2023/05/14 08:44:19;;;;;;;12.75;7.85;;;17.30;99.90;;;;;;5078509;28;20027;-78
2023/05/14 08:46:45;;;;;;;13.32;7.13;;;17.30;99.90;;;;;;5078863;28;20043;-78
2023/05/14 08:49:22;;;;;;;10.52;6.85;;;17.30;99.90;;;;;;5111992;27;20707;-79
2023/05/14 08:51:48;;;;;;;10.95;6.70;;;17.40;99.90;;;;;;5078840;28;20051;-78
2023/05/14 08:54:23;;;;;;;10.93;6.53;;;17.40;99.90;;;;;;5095039;28;20058;-78
2023/05/14 08:56:53;;;;;;;9.57;6.88;;;17.40;99.90;;;;;;5111687;27;20520;-77
2023/05/14 08:59:19;;;;;;;;;;;17.40;99.90;;;;;;5079591;28;20285;-78
2023/05/14 09:01:52;;;;;;;13.02;6.95;;;17.50;99.90;;;;;;5091983;28;20018;-78
2023/05/14 09:04:23;;;;;;;12.65;7.10;;;17.50;99.90;;;;;;5113084;27;20028;-78
2023/05/14 09:06:50;;;;;;;10.43;7.22;;;17.60;99.90;;;;;;5078029;28;20100;-78
2023/05/14 09:09:17;;;;;;;11.13;7.60;;;17.70;99.90;;;;;;5077295;28;20056;-78
2023/05/14 09:11:47;;;;;;;11.77;7.10;;;17.80;99.90;;;;;;5062279;28;21142;-78
2023/05/14 09:14:16;;;;;;;;;;;17.80;99.90;;;;;;5078042;28;20039;-79
2023/05/14 09:16:46;;;;;;;11.65;6.80;;;17.90;99.90;;;;;;5080272;28;20382;-78
2023/05/14 09:19:13;;;;;;;12.63;6.72;;;17.90;99.90;;;;;;5077048;28;20046;-78
2023/05/14 09:21:39;;;;;;;12.50;8.35;;;17.90;99.90;;;;;;5079379;28;20028;-78
2023/05/14 09:24:06;;;;;;;14.10;7.75;;;18.00;99.90;;;;;;5077969;28;20047;-78
2023/05/14 09:26:33;;;;;;;11.40;6.72;;;17.90;99.90;;;;;;5047116;28;20402;-78
2023/05/14 09:29:00;;;;;;;11.25;7.25;;;18.00;99.90;;;;;;5094573;28;20516;-78
2023/05/14 09:31:29;;;;;;;10.00;7.05;;;18.10;99.90;;;;;;5077204;28;20118;-78
2023/05/14 09:33:55;;;;;;;12.57;7.32;;;18.10;99.90;;;;;;5077250;28;20058;-79
2023/05/14 09:36:25;;;;;;;11.52;7.53;;;18.20;99.90;;;;;;5095501;27;20051;-79
2023/05/14 09:38:52;;;;;;;12.05;7.72;;;18.30;99.90;;;;;;5083566;28;20092;-79
2023/05/14 09:41:19;;;;;;;10.50;6.60;;;18.30;99.90;;;;;;5083112;28;20047;-80
2023/05/14 09:43:45;;;;;;;10.23;6.95;;;18.30;99.90;;;;;;5083827;28;20043;-78
2023/05/14 09:46:11;;;;;;;13.27;7.72;;;18.40;99.90;;;;;;5065685;28;20678;-78
2023/05/14 09:48:37;;;;;;;9.90;7.10;;;18.40;99.90;;;;;;5099836;28;20039;-79
2023/05/14 09:51:04;;;;;;;10.35;7.03;;;18.40;99.90;;;;;;5134041;27;20036;-78
2023/05/14 09:53:33;;;;;;;11.43;7.13;;;18.50;99.90;;;;;;5080787;28;20452;-78
2023/05/14 09:55:58;;;;;;;11.02;7.20;;;18.50;99.90;;;;;;5100272;28;20600;-79
2023/05/14 09:58:25;;;;;;;12.00;7.40;;;18.70;99.90;;;;;;5083694;28;20043;-78
2023/05/14 10:00:52;;;;;;;12.10;7.13;;;18.80;99.90;;;;;;5067766;28;20040;-79
2023/05/14 10:03:19;;;;;;;12.68;6.47;;;18.90;99.90;;;;;;5065773;28;20062;-78
2023/05/14 10:05:47;;;;;;;10.38;6.78;;;19.00;99.90;;;;;;5101514;27;20043;-75
2023/05/14 10:08:52;;;;;;;11.32;7.00;;;19.10;99.90;;;;;;5098544;28;20113;-75
2023/05/14 10:11:23;;;;;;;10.32;6.60;;;19.20;99.90;;;;;;5062839;28;20041;-75
2023/05/14 10:14:06;;;;;;;11.88;7.05;;;19.40;99.90;;;;;;5093239;28;20138;-76
2023/05/14 10:16:51;;;;;;;10.68;6.07;;;19.60;99.90;;;;;;5082268;28;20130;-75
2023/05/14 10:19:19;;;;;;;12.00;7.10;;;19.60;99.90;;;;;;5078242;28;20066;-75
2023/05/14 10:21:52;;;;;;;10.68;6.03;;;19.60;99.90;;;;;;5100695;28;20063;-75
2023/05/14 10:24:18;;;;;;;10.20;5.85;;;19.60;99.90;;;;;;5098081;28;20513;-79
2023/05/14 10:26:45;;;;;;;10.52;6.50;;;19.80;99.90;;;;;;5066705;28;20043;-78
2023/05/14 10:29:11;;;;;;;8.35;5.72;;;19.80;99.90;;;;;;5080215;28;20040;-78
2023/05/14 10:31:54;;;;;;;11.38;6.93;;;20.00;99.90;;;;;;5064524;28;20047;-78
2023/05/14 10:34:40;;;;;;;12.18;6.13;;;20.10;99.90;;;;;;5098895;28;20044;-79
2023/05/14 10:37:18;;;;;;;6.68;5.15;;;20.20;99.90;;;;;;5098405;27;20058;-78
2023/05/14 10:39:52;;;;;;;10.23;6.03;;;20.30;97.00;;;;;;5099532;27;20081;-78
2023/05/14 10:42:34;;;;;;;6.97;4.50;;;20.40;95.70;;;;;;5097051;28;20040;-79
2023/05/14 10:45:06;;;;;;;8.30;4.78;;;20.50;95.20;;;;;;5065984;28;20085;-78
2023/05/14 10:47:32;;;;;;;8.30;5.63;;;20.50;95.50;;;;;;5081548;28;20101;-76
2023/05/14 10:50:01;;;;;;;9.80;6.20;;;20.50;95.80;;;;;;5098258;28;20123;-75
2023/05/14 10:52:27;;;;;;;10.38;5.85;;;20.60;98.50;;;;;;5131805;27;20114;-75
2023/05/14 10:54:58;;;;;;;9.32;5.70;;;20.70;99.90;;;;;;5079220;28;20501;-74
2023/05/14 10:57:28;;;;;;;11.07;6.40;;;20.70;99.60;;;;;;5100436;28;20050;-78
2023/05/14 10:59:56;;;;;;;8.73;5.15;;;20.80;98.70;;;;;;5081825;28;20096;-78
2023/05/14 11:02:30;;;;;;;13.02;5.57;;;20.80;98.40;;;;;;5100285;28;20153;-78
2023/05/14 11:05:03;;;;;;;8.48;5.72;;;20.80;97.40;;;;;;5081469;28;20094;-77
2023/05/14 11:07:35;;;;;;;7.35;4.85;;;20.80;99.00;;;;;;5098363;27;20075;-78
2023/05/14 11:10:09;;;;;;;7.93;5.78;;;20.80;97.30;;;;;;5132000;27;20539;-78
2023/05/14 11:12:37;;;;;;;7.03;5.10;;;20.80;95.20;;;;;;5098565;27;20048;-78
2023/05/14 11:15:08;;;;;;;9.63;5.43;;;20.90;95.80;;;;;;5080520;28;20112;-77
2023/05/14 11:17:36;;;;;;;10.27;6.03;;;20.90;95.40;;;;;;5082119;28;20096;-78
2023/05/14 11:20:04;;;;;;;8.38;6.22;;;20.90;93.90;;;;;;5130281;27;20150;-77
2023/05/14 11:22:30;;;;;;;8.80;6.50;;;20.90;93.80;;;;;;5099088;28;20391;-79
2023/05/14 11:24:56;;;;;;;10.80;5.80;;;20.90;94.30;;;;;;5095892;28;20058;-78
2023/05/14 11:27:22;;;;;;;8.77;5.75;;;21.10;95.40;;;;;;5048514;28;20051;-77
2023/05/14 11:29:49;;;;;;;7.70;5.00;;;21.20;94.00;;;;;;5097118;27;20113;-78
2023/05/14 11:32:16;;;;;;;10.35;5.00;;;21.30;92.10;;;;;;5081690;28;20071;-76
2023/05/14 11:34:43;;;;;;;10.25;4.80;;;21.40;90.60;;;;;;5112649;27;20481;-78
2023/05/14 11:37:11;;;;;;;8.45;4.22;;;21.50;87.30;;;;;;5083478;28;20052;-77
2023/05/14 11:39:38;;;;;;;8.38;4.78;;;21.50;83.30;;;;;;5114766;27;20046;-77
2023/05/14 11:42:10;;;;;;;7.95;4.65;;;21.50;83.60;;;;;;5098391;27;20167;-78
2023/05/14 11:44:37;;;;;;;11.25;5.78;;;21.60;83.00;;;;;;5082106;28;20043;-77
2023/05/14 11:47:04;;;;;;;7.55;5.13;;;21.60;82.60;;;;;;5078476;28;20047;-77
2023/05/14 11:49:31;;;;;;;8.05;4.70;;;21.60;81.40;;;;;;5080588;28;20052;-77
2023/05/14 11:52:01;;;;;;;7.43;3.90;;;21.50;79.70;;;;;;5080726;28;20459;-77
2023/05/14 11:54:28;;;;;;;6.30;3.70;;;21.50;77.70;;;;;;5094574;28;20043;-77
2023/05/14 11:56:57;;;;;;;6.07;4.05;;;21.60;74.40;;;;;;5081316;28;20101;-78
2023/05/14 11:59:24;;;;;;;7.78;3.28;;;21.70;74.40;;;;;;5079964;28;20039;-77
2023/05/14 12:01:51;;;;;;;7.03;3.97;;;21.80;70.60;;;;;;5080744;28;20058;-76
2023/05/14 12:04:21;;;;;;;6.35;3.90;;;21.80;68.60;;;;;;5065736;27;20027;-74
2023/05/14 12:06:48;;;;;;;7.78;3.83;;;21.80;67.90;;;;;;5094652;28;20047;-75
2023/05/14 12:09:19;;;;;;;7.18;3.92;;;21.70;67.70;;;;;;5095084;28;20498;-78
2023/05/14 12:11:52;;;;;;;8.30;3.80;;;21.60;67.50;;;;;;5096182;28;20126;-77
2023/05/14 12:14:23;;;;;;;6.90;3.95;;;21.60;69.20;;;;;;5096833;28;20513;-77
2023/05/14 12:16:50;;;;;;;7.20;4.53;;;21.60;69.50;;;;;;5081028;28;20089;-77
2023/05/14 12:19:22;;;;;;;7.50;4.05;;;21.60;71.20;;;;;;5078756;28;20036;-78
2023/05/14 12:21:49;;;;;;;7.47;4.57;;;21.60;70.20;;;;;;5077939;28;20643;-78
2023/05/14 12:24:19;;;;;;;6.20;4.28;;;21.60;69.80;;;;;;5080245;28;20044;-77
2023/05/14 12:26:51;;;;;;;9.25;4.25;;;21.60;69.10;;;;;;5079598;28;20039;-77
2023/05/14 12:29:16;;;;;;;6.72;4.25;;;21.70;69.70;;;;;;5079792;28;20568;-77
2023/05/14 12:31:47;;;;;;;8.25;4.78;;;21.80;71.70;;;;;;5079432;28;20138;-76
2023/05/14 12:34:13;;;;;;;8.43;3.80;;;21.80;69.10;;;;;;5062964;28;20362;-76
2023/05/14 12:36:39;;;;;;;6.68;4.00;;;21.90;69.20;;;;;;5097777;27;20047;-77